sensor_id;sensor_type;location;lat;lon;timestamp;pressure;altitude;pressure_sealevel;temperature
27826;BMP280;15077;49.704;9.908;2023-07-22T00:01:04;98042.03;;;22.06
27826;BMP280;15077;49.704;9.908;2023-07-22T00:03:30;98044.63;;;22.06
27826;BMP280;15077;49.704;9.908;2023-07-22T00:06:09;98053.47;;;22.04
27826;BMP280;15077;49.704;9.908;2023-07-22T00:08:37;98046.66;;;22.03
27826;BMP280;15077;49.704;9.908;2023-07-22T00:11:07;98045.03;;;22.02
27826;BMP280;15077;49.704;9.908;2023-07-22T00:13:34;98047.19;;;21.97
27826;BMP280;15077;49.704;9.908;2023-07-22T00:16:02;98048.41;;;21.93
27826;BMP280;15077;49.704;9.908;2023-07-22T00:18:31;98061.44;;;21.92
27826;BMP280;15077;49.704;9.908;2023-07-22T00:20:58;98056.41;;;21.90
27826;BMP280;15077;49.704;9.908;2023-07-22T00:23:23;98059.97;;;21.89
27826;BMP280;15077;49.704;9.908;2023-07-22T00:25:50;98053.16;;;21.88
27826;BMP280;15077;49.704;9.908;2023-07-22T00:28:16;98053.69;;;21.82
27826;BMP280;15077;49.704;9.908;2023-07-22T00:30:44;98052.44;;;21.77
27826;BMP280;15077;49.704;9.908;2023-07-22T00:33:09;98058.97;;;21.71
27826;BMP280;15077;49.704;9.908;2023-07-22T00:35:35;98053.47;;;21.65
27826;BMP280;15077;49.704;9.908;2023-07-22T00:38:03;98045.72;;;21.55
27826;BMP280;15077;49.704;9.908;2023-07-22T00:40:29;98048.13;;;21.47
27826;BMP280;15077;49.704;9.908;2023-07-22T00:42:58;98051.91;;;21.43
27826;BMP280;15077;49.704;9.908;2023-07-22T00:45:26;98056.34;;;21.42
27826;BMP280;15077;49.704;9.908;2023-07-22T00:47:53;98049.97;;;21.36
27826;BMP280;15077;49.704;9.908;2023-07-22T00:50:19;98048.69;;;21.31
27826;BMP280;15077;49.704;9.908;2023-07-22T00:52:45;98045.69;;;21.26
27826;BMP280;15077;49.704;9.908;2023-07-22T00:55:10;98043.63;;;21.20
27826;BMP280;15077;49.704;9.908;2023-07-22T00:57:36;98045.63;;;21.16
27826;BMP280;15077;49.704;9.908;2023-07-22T01:00:05;98043.44;;;21.12
27826;BMP280;15077;49.704;9.908;2023-07-22T01:02:31;98037.47;;;21.11
27826;BMP280;15077;49.704;9.908;2023-07-22T01:04:58;98044.38;;;21.11
27826;BMP280;15077;49.704;9.908;2023-07-22T01:07:24;98041.41;;;21.15
27826;BMP280;15077;49.704;9.908;2023-07-22T01:09:56;98046.31;;;21.18
27826;BMP280;15077;49.704;9.908;2023-07-22T01:12:24;98043.63;;;21.20
27826;BMP280;15077;49.704;9.908;2023-07-22T01:14:50;98050.41;;;21.21
27826;BMP280;15077;49.704;9.908;2023-07-22T01:17:16;98051.91;;;21.23
27826;BMP280;15077;49.704;9.908;2023-07-22T01:19:43;98057.06;;;21.23
27826;BMP280;15077;49.704;9.908;2023-07-22T01:22:10;98051.00;;;21.24
27826;BMP280;15077;49.704;9.908;2023-07-22T01:24:38;98052.59;;;21.25
27826;BMP280;15077;49.704;9.908;2023-07-22T01:27:06;98051.53;;;21.28
27826;BMP280;15077;49.704;9.908;2023-07-22T01:29:37;98056.69;;;21.28
27826;BMP280;15077;49.704;9.908;2023-07-22T01:32:04;98048.03;;;21.29
27826;BMP280;15077;49.704;9.908;2023-07-22T01:34:31;98053.19;;;21.29
27826;BMP280;15077;49.704;9.908;2023-07-22T01:36:57;98044.59;;;21.28
27826;BMP280;15077;49.704;9.908;2023-07-22T01:39:23;98053.97;;;21.29
27826;BMP280;15077;49.704;9.908;2023-07-22T01:41:49;98048.03;;;21.29
27826;BMP280;15077;49.704;9.908;2023-07-22T01:44:14;98053.44;;;21.26
27826;BMP280;15077;49.704;9.908;2023-07-22T01:46:41;98046.91;;;21.22
27826;BMP280;15077;49.704;9.908;2023-07-22T01:49:11;98043.75;;;21.18
27826;BMP280;15077;49.704;9.908;2023-07-22T01:51:39;98043.06;;;21.16
27826;BMP280;15077;49.704;9.908;2023-07-22T01:54:09;98038.97;;;21.14
27826;BMP280;15077;49.704;9.908;2023-07-22T01:56:36;98040.59;;;21.15
27826;BMP280;15077;49.704;9.908;2023-07-22T01:59:02;98043.88;;;21.17
27826;BMP280;15077;49.704;9.908;2023-07-22T02:01:28;98043.75;;;21.18
27826;BMP280;15077;49.704;9.908;2023-07-22T02:03:54;98041.88;;;21.20
27826;BMP280;15077;49.704;9.908;2023-07-22T02:06:20;98052.06;;;21.22
27826;BMP280;15077;49.704;9.908;2023-07-22T02:08:46;98052.97;;;21.21
27826;BMP280;15077;49.704;9.908;2023-07-22T02:11:12;98050.66;;;21.18
27826;BMP280;15077;49.704;9.908;2023-07-22T02:13:38;98045.22;;;21.11
27826;BMP280;15077;49.704;9.908;2023-07-22T02:16:05;98053.88;;;21.10
27826;BMP280;15077;49.704;9.908;2023-07-22T02:18:30;98058.22;;;21.10
27826;BMP280;15077;49.704;9.908;2023-07-22T02:20:57;98057.50;;;21.08
27826;BMP280;15077;49.704;9.908;2023-07-22T02:23:24;98069.59;;;21.07
27826;BMP280;15077;49.704;9.908;2023-07-22T02:25:54;98063.88;;;21.04
27826;BMP280;15077;49.704;9.908;2023-07-22T02:28:22;98070.91;;;21.02
27826;BMP280;15077;49.704;9.908;2023-07-22T02:30:53;98064.13;;;21.01
27826;BMP280;15077;49.704;9.908;2023-07-22T02:33:21;98062.75;;;20.97
27826;BMP280;15077;49.704;9.908;2023-07-22T02:35:50;98067.22;;;20.95
27826;BMP280;15077;49.704;9.908;2023-07-22T02:38:15;98062.06;;;20.95
27826;BMP280;15077;49.704;9.908;2023-07-22T02:40:41;98065.31;;;20.97
27826;BMP280;15077;49.704;9.908;2023-07-22T02:43:07;98068.72;;;20.97
27826;BMP280;15077;49.704;9.908;2023-07-22T02:45:34;98062.50;;;21.00
27826;BMP280;15077;49.704;9.908;2023-07-22T02:48:00;98064.13;;;21.01
27826;BMP280;15077;49.704;9.908;2023-07-22T02:50:26;98060.59;;;21.02
27826;BMP280;15077;49.704;9.908;2023-07-22T02:52:52;98063.06;;;21.03
27826;BMP280;15077;49.704;9.908;2023-07-22T02:55:18;98062.13;;;21.04
27826;BMP280;15077;49.704;9.908;2023-07-22T02:57:46;98059.66;;;21.03
27826;BMP280;15077;49.704;9.908;2023-07-22T03:00:15;98057.09;;;21.03
27826;BMP280;15077;49.704;9.908;2023-07-22T03:02:57;98057.34;;;21.00
27826;BMP280;15077;49.704;9.908;2023-07-22T03:05:29;98064.69;;;21.04
27826;BMP280;15077;49.704;9.908;2023-07-22T03:07:57;98061.06;;;21.07
27826;BMP280;15077;49.704;9.908;2023-07-22T03:10:24;98062.53;;;21.09
27826;BMP280;15077;49.704;9.908;2023-07-22T03:12:51;98062.41;;;21.11
27826;BMP280;15077;49.704;9.908;2023-07-22T03:15:25;98057.00;;;21.14
27826;BMP280;15077;49.704;9.908;2023-07-22T03:17:55;98057.72;;;21.16
27826;BMP280;15077;49.704;9.908;2023-07-22T03:20:25;98062.63;;;21.19
27826;BMP280;15077;49.704;9.908;2023-07-22T03:22:52;98052.84;;;21.22
27826;BMP280;15077;49.704;9.908;2023-07-22T03:25:19;98055.19;;;21.25
27826;BMP280;15077;49.704;9.908;2023-07-22T03:27:46;98052.47;;;21.27
27826;BMP280;15077;49.704;9.908;2023-07-22T03:30:17;98058.34;;;21.29
27826;BMP280;15077;49.704;9.908;2023-07-22T03:32:47;98051.53;;;21.28
27826;BMP280;15077;49.704;9.908;2023-07-22T03:35:14;98059.41;;;21.26
27826;BMP280;15077;49.704;9.908;2023-07-22T03:37:40;98065.38;;;21.27
27826;BMP280;15077;49.704;9.908;2023-07-22T03:40:07;98062.78;;;21.27
27826;BMP280;15077;49.704;9.908;2023-07-22T03:42:38;98068.06;;;21.25
27826;BMP280;15077;49.704;9.908;2023-07-22T03:45:05;98068.78;;;21.27
27826;BMP280;15077;49.704;9.908;2023-07-22T03:47:32;98075.69;;;21.27
27826;BMP280;15077;49.704;9.908;2023-07-22T03:49:58;98083.41;;;21.27
27826;BMP280;15077;49.704;9.908;2023-07-22T03:52:23;98084.38;;;21.26
27826;BMP280;15077;49.704;9.908;2023-07-22T03:54:49;98081.34;;;21.21
27826;BMP280;15077;49.704;9.908;2023-07-22T03:57:15;98076.44;;;21.18
27826;BMP280;15077;49.704;9.908;2023-07-22T03:59:41;98077.38;;;21.17
27826;BMP280;15077;49.704;9.908;2023-07-22T04:02:07;98074.78;;;21.17
27826;BMP280;15077;49.704;9.908;2023-07-22T04:04:33;98069.41;;;21.20
27826;BMP280;15077;49.704;9.908;2023-07-22T04:06:59;98078.38;;;21.25
27826;BMP280;15077;49.704;9.908;2023-07-22T04:09:29;98077.31;;;21.28
27826;BMP280;15077;49.704;9.908;2023-07-22T04:11:55;98079.91;;;21.28
27826;BMP280;15077;49.704;9.908;2023-07-22T04:14:21;98081.66;;;21.27
27826;BMP280;15077;49.704;9.908;2023-07-22T04:16:47;98086.84;;;21.37
27826;BMP280;15077;49.704;9.908;2023-07-22T04:19:12;98091.09;;;21.38
27826;BMP280;15077;49.704;9.908;2023-07-22T04:21:39;98092.00;;;21.37
27826;BMP280;15077;49.704;9.908;2023-07-22T04:24:05;98085.22;;;21.36
27826;BMP280;15077;49.704;9.908;2023-07-22T04:26:30;98083.47;;;21.36
27826;BMP280;15077;49.704;9.908;2023-07-22T04:28:57;98077.59;;;21.34
27826;BMP280;15077;49.704;9.908;2023-07-22T04:31:24;98084.69;;;21.42
27826;BMP280;15077;49.704;9.908;2023-07-22T04:33:50;98076.03;;;21.42
27826;BMP280;15077;49.704;9.908;2023-07-22T04:36:15;98078.63;;;21.42
27826;BMP280;15077;49.704;9.908;2023-07-22T04:38:42;98088.00;;;21.43
27826;BMP280;15077;49.704;9.908;2023-07-22T04:41:08;98083.91;;;21.41
27826;BMP280;15077;49.704;9.908;2023-07-22T04:43:33;98086.47;;;21.41
27826;BMP280;15077;49.704;9.908;2023-07-22T04:45:59;98088.94;;;21.42
27826;BMP280;15077;49.704;9.908;2023-07-22T04:48:25;98087.16;;;21.43
27826;BMP280;15077;49.704;9.908;2023-07-22T04:50:51;98092.19;;;21.44
27826;BMP280;15077;49.704;9.908;2023-07-22T04:53:18;98092.94;;;21.46
27826;BMP280;15077;49.704;9.908;2023-07-22T04:55:44;98093.72;;;21.47
27826;BMP280;15077;49.704;9.908;2023-07-22T04:58:09;98091.03;;;21.48
27826;BMP280;15077;49.704;9.908;2023-07-22T05:00:39;98089.13;;;21.50
27826;BMP280;15077;49.704;9.908;2023-07-22T05:03:05;98099.19;;;21.53
27826;BMP280;15077;49.704;9.908;2023-07-22T05:05:32;98094.72;;;21.55
27826;BMP280;15077;49.704;9.908;2023-07-22T05:07:58;98099.75;;;21.57
27826;BMP280;15077;49.704;9.908;2023-07-22T05:10:24;98091.19;;;21.56
27826;BMP280;15077;49.704;9.908;2023-07-22T05:12:49;98092.81;;;21.57
27826;BMP280;15077;49.704;9.908;2023-07-22T05:15:15;98097.84;;;21.59
27826;BMP280;15077;49.704;9.908;2023-07-22T05:17:41;98095.28;;;21.59
27826;BMP280;15077;49.704;9.908;2023-07-22T05:20:07;98090.00;;;21.60
27826;BMP280;15077;49.704;9.908;2023-07-22T05:22:38;98103.00;;;21.59
27826;BMP280;15077;49.704;9.908;2023-07-22T05:25:06;98104.78;;;21.58
27826;BMP280;15077;49.704;9.908;2023-07-22T05:27:32;98104.91;;;21.57
27826;BMP280;15077;49.704;9.908;2023-07-22T05:29:58;98111.00;;;21.56
27826;BMP280;15077;49.704;9.908;2023-07-22T05:32:24;98112.78;;;21.55
27826;BMP280;15077;49.704;9.908;2023-07-22T05:34:49;98107.75;;;21.54
27826;BMP280;15077;49.704;9.908;2023-07-22T05:37:15;98119.81;;;21.53
27826;BMP280;15077;49.704;9.908;2023-07-22T05:39:44;98123.47;;;21.51
27826;BMP280;15077;49.704;9.908;2023-07-22T05:42:09;98123.63;;;21.49
27826;BMP280;15077;49.704;9.908;2023-07-22T05:44:35;98118.59;;;21.48
27826;BMP280;15077;49.704;9.908;2023-07-22T05:47:01;98119.63;;;21.45
27826;BMP280;15077;49.704;9.908;2023-07-22T05:49:27;98119.63;;;21.45
27826;BMP280;15077;49.704;9.908;2023-07-22T05:51:53;98123.97;;;21.45
27826;BMP280;15077;49.704;9.908;2023-07-22T05:54:20;98128.06;;;21.47
27826;BMP280;15077;49.704;9.908;2023-07-22T05:56:46;98122.78;;;21.49
27826;BMP280;15077;49.704;9.908;2023-07-22T05:59:12;98125.22;;;21.50
27826;BMP280;15077;49.704;9.908;2023-07-22T06:01:38;98132.84;;;21.52
27826;BMP280;15077;49.704;9.908;2023-07-22T06:04:06;98131.78;;;21.54
27826;BMP280;15077;49.704;9.908;2023-07-22T06:06:32;98127.53;;;21.53
27826;BMP280;15077;49.704;9.908;2023-07-22T06:09:01;98134.34;;;21.54
27826;BMP280;15077;49.704;9.908;2023-07-22T06:11:27;98135.03;;;21.56
27826;BMP280;15077;49.704;9.908;2023-07-22T06:13:54;98143.47;;;21.58
27826;BMP280;15077;49.704;9.908;2023-07-22T06:16:20;98139.94;;;21.59
27826;BMP280;15077;49.704;9.908;2023-07-22T06:18:46;98141.31;;;21.63
27826;BMP280;15077;49.704;9.908;2023-07-22T06:21:11;98149.72;;;21.65
27826;BMP280;15077;49.704;9.908;2023-07-22T06:23:37;98144.56;;;21.65
27826;BMP280;15077;49.704;9.908;2023-07-22T06:26:03;98147.16;;;21.65
27826;BMP280;15077;49.704;9.908;2023-07-22T06:28:29;98154.22;;;21.63
27826;BMP280;15077;49.704;9.908;2023-07-22T06:30:54;98153.53;;;21.61
27826;BMP280;15077;49.704;9.908;2023-07-22T06:33:20;98154.34;;;21.62
27826;BMP280;15077;49.704;9.908;2023-07-22T06:35:46;98151.75;;;21.62
27826;BMP280;15077;49.704;9.908;2023-07-22T06:38:11;98148.38;;;21.61
27826;BMP280;15077;49.704;9.908;2023-07-22T06:40:37;98149.19;;;21.62
27826;BMP280;15077;49.704;9.908;2023-07-22T06:43:06;98155.84;;;21.64
27826;BMP280;15077;49.704;9.908;2023-07-22T06:45:32;98155.84;;;21.64
27826;BMP280;15077;49.704;9.908;2023-07-22T06:47:58;98156.78;;;21.63
27826;BMP280;15077;49.704;9.908;2023-07-22T06:50:24;98169.56;;;21.65
27826;BMP280;15077;49.704;9.908;2023-07-22T06:52:51;98164.66;;;21.62
27826;BMP280;15077;49.704;9.908;2023-07-22T06:55:16;98159.63;;;21.60
27826;BMP280;15077;49.704;9.908;2023-07-22T06:57:42;98156.38;;;21.58
27826;BMP280;15077;49.704;9.908;2023-07-22T07:00:09;98151.88;;;21.60
27826;BMP280;15077;49.704;9.908;2023-07-22T07:02:37;98152.56;;;21.62
27826;BMP280;15077;49.704;9.908;2023-07-22T07:05:03;98161.69;;;21.66
27826;BMP280;15077;49.704;9.908;2023-07-22T07:07:29;98157.25;;;21.68
27826;BMP280;15077;49.704;9.908;2023-07-22T07:09:55;98158.06;;;21.69
27826;BMP280;15077;49.704;9.908;2023-07-22T07:12:21;98161.44;;;21.69
27826;BMP280;15077;49.704;9.908;2023-07-22T07:14:50;98165.41;;;21.73
27826;BMP280;15077;49.704;9.908;2023-07-22T07:17:17;98163.38;;;21.77
27826;BMP280;15077;49.704;9.908;2023-07-22T07:19:43;98164.22;;;21.77
27826;BMP280;15077;49.704;9.908;2023-07-22T07:22:09;98166.53;;;21.80
27826;BMP280;15077;49.704;9.908;2023-07-22T07:24:35;98158.53;;;21.83
27826;BMP280;15077;49.704;9.908;2023-07-22T07:27:00;98164.91;;;21.89
27826;BMP280;15077;49.704;9.908;2023-07-22T07:29:26;98163.72;;;21.92
27826;BMP280;15077;49.704;9.908;2023-07-22T07:31:52;98167.81;;;21.95
27826;BMP280;15077;49.704;9.908;2023-07-22T07:34:17;98170.81;;;22.00
27826;BMP280;15077;49.704;9.908;2023-07-22T07:36:43;98163.63;;;22.03
27826;BMP280;15077;49.704;9.908;2023-07-22T07:39:09;98164.88;;;22.09
27826;BMP280;15077;49.704;9.908;2023-07-22T07:41:34;98173.06;;;22.14
27826;BMP280;15077;49.704;9.908;2023-07-22T07:44:00;98164.09;;;22.18
27826;BMP280;15077;49.704;9.908;2023-07-22T07:46:28;98168.75;;;22.24
27826;BMP280;15077;49.704;9.908;2023-07-22T07:48:56;98165.66;;;22.30
27826;BMP280;15077;49.704;9.908;2023-07-22T07:51:24;98171.25;;;22.35
27826;BMP280;15077;49.704;9.908;2023-07-22T07:53:53;98164.19;;;22.37
27826;BMP280;15077;49.704;9.908;2023-07-22T07:56:19;98175.03;;;22.40
27826;BMP280;15077;49.704;9.908;2023-07-22T07:58:48;98162.84;;;22.42
27826;BMP280;15077;49.704;9.908;2023-07-22T08:01:14;98166.91;;;22.44
27826;BMP280;15077;49.704;9.908;2023-07-22T08:03:41;98163.91;;;22.49
27826;BMP280;15077;49.704;9.908;2023-07-22T08:06:11;98162.56;;;22.54
27826;BMP280;15077;49.704;9.908;2023-07-22T08:08:38;98163.16;;;22.58
27826;BMP280;15077;49.704;9.908;2023-07-22T08:11:09;98164.34;;;22.63
27826;BMP280;15077;49.704;9.908;2023-07-22T08:13:36;98165.72;;;22.67
27826;BMP280;15077;49.704;9.908;2023-07-22T08:16:05;98177.16;;;22.74
27826;BMP280;15077;49.704;9.908;2023-07-22T08:18:32;98180.03;;;22.81
27826;BMP280;15077;49.704;9.908;2023-07-22T08:20:58;98182.19;;;22.85
27826;BMP280;15077;49.704;9.908;2023-07-22T08:23:24;98166.81;;;22.93
27826;BMP280;15077;49.704;9.908;2023-07-22T08:25:50;98171.91;;;23.04
27826;BMP280;15077;49.704;9.908;2023-07-22T08:28:16;98171.34;;;23.10
27826;BMP280;15077;49.704;9.908;2023-07-22T08:30:43;98170.94;;;23.14
27826;BMP280;15077;49.704;9.908;2023-07-22T08:33:11;98168.91;;;23.18
27826;BMP280;15077;49.704;9.908;2023-07-22T08:35:40;98162.50;;;23.22
27826;BMP280;15077;49.704;9.908;2023-07-22T08:38:07;98163.88;;;23.26
27826;BMP280;15077;49.704;9.908;2023-07-22T08:40:39;98162.34;;;23.33
27826;BMP280;15077;49.704;9.908;2023-07-22T08:43:08;98153.22;;;23.38
27826;BMP280;15077;49.704;9.908;2023-07-22T08:45:37;98155.78;;;23.47
27826;BMP280;15077;49.704;9.908;2023-07-22T08:48:09;98148.97;;;23.56
27826;BMP280;15077;49.704;9.908;2023-07-22T08:50:57;98155.78;;;23.57
27826;BMP280;15077;49.704;9.908;2023-07-22T08:53:25;98160.00;;;23.67
27826;BMP280;15077;49.704;9.908;2023-07-22T08:55:53;98152.06;;;23.78
27826;BMP280;15077;49.704;9.908;2023-07-22T08:58:19;98153.78;;;23.87
27826;BMP280;15077;49.704;9.908;2023-07-22T09:00:47;98155.66;;;23.94
27826;BMP280;15077;49.704;9.908;2023-07-22T09:03:14;98142.97;;;24.01
27826;BMP280;15077;49.704;9.908;2023-07-22T09:05:40;98153.44;;;24.09
27826;BMP280;15077;49.704;9.908;2023-07-22T09:08:09;98149.31;;;24.16
27826;BMP280;15077;49.704;9.908;2023-07-22T09:10:35;98156.50;;;24.22
27826;BMP280;15077;49.704;9.908;2023-07-22T09:13:02;98149.94;;;24.27
27826;BMP280;15077;49.704;9.908;2023-07-22T09:15:29;98155.50;;;24.32
27826;BMP280;15077;49.704;9.908;2023-07-22T09:17:55;98165.59;;;24.35
27826;BMP280;15077;49.704;9.908;2023-07-22T09:20:21;98147.31;;;24.37
27826;BMP280;15077;49.704;9.908;2023-07-22T09:22:50;98155.59;;;24.40
27826;BMP280;15077;49.704;9.908;2023-07-22T09:25:29;98154.66;;;24.41
27826;BMP280;15077;49.704;9.908;2023-07-22T09:28:01;98149.19;;;24.44
27826;BMP280;15077;49.704;9.908;2023-07-22T09:30:32;98152.03;;;24.50
27826;BMP280;15077;49.704;9.908;2023-07-22T09:33:21;98144.75;;;24.54
27826;BMP280;15077;49.704;9.908;2023-07-22T09:35:49;98145.06;;;24.68
27826;BMP280;15077;49.704;9.908;2023-07-22T09:38:25;98139.16;;;24.76
27826;BMP280;15077;49.704;9.908;2023-07-22T09:40:52;98145.06;;;24.86
27826;BMP280;15077;49.704;9.908;2023-07-22T09:43:18;98133.13;;;24.92
27826;BMP280;15077;49.704;9.908;2023-07-22T09:45:47;98140.03;;;25.01
27826;BMP280;15077;49.704;9.908;2023-07-22T09:48:14;98141.88;;;25.09
27826;BMP280;15077;49.704;9.908;2023-07-22T09:50:39;98135.00;;;25.17
27826;BMP280;15077;49.704;9.908;2023-07-22T09:53:06;98129.69;;;25.27
27826;BMP280;15077;49.704;9.908;2023-07-22T09:55:33;98130.72;;;25.34
27826;BMP280;15077;49.704;9.908;2023-07-22T09:58:02;98124.84;;;25.49
27826;BMP280;15077;49.704;9.908;2023-07-22T10:00:33;98116.94;;;25.58
27826;BMP280;15077;49.704;9.908;2023-07-22T10:03:03;98111.81;;;25.66
27826;BMP280;15077;49.704;9.908;2023-07-22T10:05:35;98119.06;;;25.80
27826;BMP280;15077;49.704;9.908;2023-07-22T10:08:02;98114.88;;;25.87
27826;BMP280;15077;49.704;9.908;2023-07-22T10:10:37;98109.88;;;25.93
27826;BMP280;15077;49.704;9.908;2023-07-22T10:13:04;98112.47;;;26.01
27826;BMP280;15077;49.704;9.908;2023-07-22T10:15:33;98109.94;;;26.09
27826;BMP280;15077;49.704;9.908;2023-07-22T10:18:01;98107.19;;;26.19
27826;BMP280;15077;49.704;9.908;2023-07-22T10:20:29;98107.22;;;26.27
27826;BMP280;15077;49.704;9.908;2023-07-22T10:22:59;98108.09;;;26.35
27826;BMP280;15077;49.704;9.908;2023-07-22T10:25:25;98099.38;;;26.52
27826;BMP280;15077;49.704;9.908;2023-07-22T10:27:54;98097.41;;;26.62
27826;BMP280;15077;49.704;9.908;2023-07-22T10:30:20;98097.91;;;26.73
27826;BMP280;15077;49.704;9.908;2023-07-22T10:32:52;98097.25;;;26.79
27826;BMP280;15077;49.704;9.908;2023-07-22T10:38:10;98104.59;;;26.84
27826;BMP280;15077;49.704;9.908;2023-07-22T10:43:15;98086.25;;;27.01
27826;BMP280;15077;49.704;9.908;2023-07-22T10:45:43;98083.00;;;27.07
27826;BMP280;15077;49.704;9.908;2023-07-22T10:48:14;98079.91;;;27.11
27826;BMP280;15077;49.704;9.908;2023-07-22T10:50:51;98083.97;;;27.14
27826;BMP280;15077;49.704;9.908;2023-07-22T10:56:10;98082.97;;;27.15
27826;BMP280;15077;49.704;9.908;2023-07-22T10:58:57;98070.81;;;27.15
27826;BMP280;15077;49.704;9.908;2023-07-22T11:11:55;98062.78;;;27.40
27826;BMP280;15077;49.704;9.908;2023-07-22T11:14:27;98070.88;;;27.45
27826;BMP280;15077;49.704;9.908;2023-07-22T11:16:53;98065.03;;;27.43
27826;BMP280;15077;49.704;9.908;2023-07-22T11:19:23;98059.84;;;27.43
27826;BMP280;15077;49.704;9.908;2023-07-22T11:21:51;98067.47;;;27.45
27826;BMP280;15077;49.704;9.908;2023-07-22T11:24:18;98066.97;;;27.49
27826;BMP280;15077;49.704;9.908;2023-07-22T11:26:46;98050.09;;;27.53
27826;BMP280;15077;49.704;9.908;2023-07-22T11:29:13;98048.41;;;27.60
27826;BMP280;15077;49.704;9.908;2023-07-22T11:31:42;98042.56;;;27.66
27826;BMP280;15077;49.704;9.908;2023-07-22T11:34:10;98050.03;;;27.69
27826;BMP280;15077;49.704;9.908;2023-07-22T11:36:36;98049.22;;;27.69
27826;BMP280;15077;49.704;9.908;2023-07-22T11:39:08;98051.66;;;27.70
27826;BMP280;15077;49.704;9.908;2023-07-22T11:41:38;98046.44;;;27.70
27826;BMP280;15077;49.704;9.908;2023-07-22T11:44:05;98042.06;;;27.71
27826;BMP280;15077;49.704;9.908;2023-07-22T11:46:35;98042.69;;;27.73
27826;BMP280;15077;49.704;9.908;2023-07-22T11:49:02;98031.78;;;27.77
27826;BMP280;15077;49.704;9.908;2023-07-22T11:51:28;98028.47;;;27.83
27826;BMP280;15077;49.704;9.908;2023-07-22T11:53:55;98019.00;;;27.90
27826;BMP280;15077;49.704;9.908;2023-07-22T11:56:25;98014.09;;;27.95
27826;BMP280;15077;49.704;9.908;2023-07-22T11:58:53;98018.63;;;28.01
27826;BMP280;15077;49.704;9.908;2023-07-22T12:01:19;98016.63;;;28.03
27826;BMP280;15077;49.704;9.908;2023-07-22T12:03:46;98014.03;;;28.03
27826;BMP280;15077;49.704;9.908;2023-07-22T12:06:12;98012.25;;;28.03
27826;BMP280;15077;49.704;9.908;2023-07-22T12:08:46;98000.84;;;28.04
27826;BMP280;15077;49.704;9.908;2023-07-22T12:11:23;98000.50;;;28.07
27826;BMP280;15077;49.704;9.908;2023-07-22T12:14:12;98004.91;;;28.07
27826;BMP280;15077;49.704;9.908;2023-07-22T12:16:41;97998.84;;;28.14
27826;BMP280;15077;49.704;9.908;2023-07-22T12:19:09;97988.84;;;28.26
27826;BMP280;15077;49.704;9.908;2023-07-22T12:21:35;97988.16;;;28.32
27826;BMP280;15077;49.704;9.908;2023-07-22T12:24:01;97983.41;;;28.35
27826;BMP280;15077;49.704;9.908;2023-07-22T12:26:28;97988.09;;;28.39
27826;BMP280;15077;49.704;9.908;2023-07-22T12:28:53;97982.53;;;28.42
27826;BMP280;15077;49.704;9.908;2023-07-22T12:31:19;97971.75;;;28.45
27826;BMP280;15077;49.704;9.908;2023-07-22T12:33:45;97970.06;;;28.52
27826;BMP280;15077;49.704;9.908;2023-07-22T12:36:11;97970.81;;;28.61
27826;BMP280;15077;49.704;9.908;2023-07-22T12:38:37;97966.38;;;28.69
27826;BMP280;15077;49.704;9.908;2023-07-22T12:41:03;97967.94;;;28.78
27826;BMP280;15077;49.704;9.908;2023-07-22T12:43:29;97965.22;;;28.86
27826;BMP280;15077;49.704;9.908;2023-07-22T12:45:56;97958.69;;;28.90
27826;BMP280;15077;49.704;9.908;2023-07-22T12:48:22;97962.53;;;28.94
27826;BMP280;15077;49.704;9.908;2023-07-22T12:50:50;97967.75;;;28.94
27826;BMP280;15077;49.704;9.908;2023-07-22T12:53:16;97953.38;;;28.98
27826;BMP280;15077;49.704;9.908;2023-07-22T12:55:42;97955.25;;;29.04
27826;BMP280;15077;49.704;9.908;2023-07-22T12:58:07;97960.41;;;29.12
27826;BMP280;15077;49.704;9.908;2023-07-22T13:00:33;97956.25;;;29.17
27826;BMP280;15077;49.704;9.908;2023-07-22T13:02:59;97942.84;;;29.20
27826;BMP280;15077;49.704;9.908;2023-07-22T13:05:25;97946.91;;;29.23
27826;BMP280;15077;49.704;9.908;2023-07-22T13:07:50;97937.75;;;29.27
27826;BMP280;15077;49.704;9.908;2023-07-22T13:10:16;97939.34;;;29.28
27826;BMP280;15077;49.704;9.908;2023-07-22T13:12:45;97947.81;;;29.30
27826;BMP280;15077;49.704;9.908;2023-07-22T13:15:11;97939.00;;;29.31
27826;BMP280;15077;49.704;9.908;2023-07-22T13:17:36;97948.63;;;29.30
27826;BMP280;15077;49.704;9.908;2023-07-22T13:20:07;97934.78;;;29.30
27826;BMP280;15077;49.704;9.908;2023-07-22T13:22:38;97926.66;;;29.25
27826;BMP280;15077;49.704;9.908;2023-07-22T13:25:04;97944.94;;;29.25
27826;BMP280;15077;49.704;9.908;2023-07-22T13:27:30;97940.88;;;29.22
27826;BMP280;15077;49.704;9.908;2023-07-22T13:29:56;97930.59;;;29.21
27826;BMP280;15077;49.704;9.908;2023-07-22T13:32:23;97930.78;;;29.19
27826;BMP280;15077;49.704;9.908;2023-07-22T13:34:49;97934.56;;;29.17
27826;BMP280;15077;49.704;9.908;2023-07-22T13:37:14;97927.91;;;29.14
27826;BMP280;15077;49.704;9.908;2023-07-22T13:39:40;97930.50;;;29.14
27826;BMP280;15077;49.704;9.908;2023-07-22T13:42:06;97930.31;;;29.16
27826;BMP280;15077;49.704;9.908;2023-07-22T13:44:31;97923.50;;;29.15
27826;BMP280;15077;49.704;9.908;2023-07-22T13:46:57;97918.91;;;29.17
27826;BMP280;15077;49.704;9.908;2023-07-22T13:49:23;97924.56;;;29.20
27826;BMP280;15077;49.704;9.908;2023-07-22T13:51:48;97920.00;;;29.22
27826;BMP280;15077;49.704;9.908;2023-07-22T13:54:14;97918.47;;;29.28
27826;BMP280;15077;49.704;9.908;2023-07-22T13:56:41;97917.72;;;29.34
27826;BMP280;15077;49.704;9.908;2023-07-22T13:59:09;97913.78;;;29.38
27826;BMP280;15077;49.704;9.908;2023-07-22T14:01:35;97899.38;;;29.41
27826;BMP280;15077;49.704;9.908;2023-07-22T14:04:00;97910.25;;;29.45
27826;BMP280;15077;49.704;9.908;2023-07-22T14:06:26;97912.69;;;29.46
27826;BMP280;15077;49.704;9.908;2023-07-22T14:08:52;97904.66;;;29.48
27826;BMP280;15077;49.704;9.908;2023-07-22T14:11:18;97904.13;;;29.52
27826;BMP280;15077;49.704;9.908;2023-07-22T14:13:44;97901.13;;;29.55
27826;BMP280;15077;49.704;9.908;2023-07-22T14:16:11;97907.44;;;29.61
27826;BMP280;15077;49.704;9.908;2023-07-22T14:18:37;97900.66;;;29.66
27826;BMP280;15077;49.704;9.908;2023-07-22T14:21:02;97901.72;;;29.72
27826;BMP280;15077;49.704;9.908;2023-07-22T14:23:28;97892.91;;;29.73
27826;BMP280;15077;49.704;9.908;2023-07-22T14:25:54;97899.75;;;29.74
27826;BMP280;15077;49.704;9.908;2023-07-22T14:28:20;97902.38;;;29.74